Time;durP1;ratioP1;P1;durP2;ratioP2;P2;SDS_P1;SDS_P2;PMS_P1;PMS_P2;Temp;Humidity;BMP_temperature;BMP_pressure;BME280_temperature;BME280_humidity;BME280_pressure;Samples;Min_cycle;Max_cycle;Signal;HPM_P1;HPM_P2
2023/10/14 00:01:31;;;;;;;3.50;3.23;;;;;;;-144.99;100.00;67352.69;5036544;28;20183;-82
2023/10/14 00:03:57;;;;;;;0.00;0.00;;;;;;;-144.99;100.00;67352.69;5035515;28;20307;-82
2023/10/14 00:06:23;;;;;;;2.40;2.20;;;;;;;-144.99;100.00;67352.69;5035498;28;20234;-82
2023/10/14 00:11:18;;;;;;;6.20;2.37;;;;;;;-144.99;100.00;67352.69;5036378;28;20199;-82
2023/10/14 00:13:48;;;;;;;5.30;3.17;;;;;;;-144.99;100.00;67352.69;5035451;28;20653;-82
2023/10/14 00:16:35;;;;;;;10.90;3.93;;;;;;;-144.99;100.00;67352.69;5036096;28;20184;-82
2023/10/14 00:19:05;;;;;;;5.60;2.93;;;;;;;-144.99;100.00;67352.69;5033945;28;20718;-81
2023/10/14 00:21:34;;;;;;;2.87;2.67;;;;;;;-144.99;100.00;67352.69;5034518;28;20211;-81
2023/10/14 00:24:02;;;;;;;2.90;2.67;;;;;;;-144.99;100.00;67352.69;5034949;28;20206;-82
2023/10/14 00:26:28;;;;;;;3.67;1.80;;;;;;;-144.99;100.00;67352.69;5035856;28;20255;-82
2023/10/14 00:31:38;;;;;;;3.63;3.17;;;;;;;-144.99;100.00;67352.69;5035938;28;20190;-81
2023/10/14 00:34:04;;;;;;;10.93;3.73;;;;;;;-144.99;100.00;67352.69;5045630;28;20203;-82
2023/10/14 00:36:31;;;;;;;6.80;3.80;;;;;;;-144.99;100.00;67352.69;5054743;28;20206;-81
2023/10/14 00:39:00;;;;;;;1.70;1.57;;;;;;;-144.99;100.00;67352.69;5053510;28;20187;-81
2023/10/14 00:41:27;;;;;;;1.67;1.57;;;;;;;-144.99;100.00;67352.69;5053746;28;20269;-81
2023/10/14 00:43:53;;;;;;;1.33;1.23;;;;;;;-144.99;100.00;67352.69;5053999;28;20237;-81
2023/10/14 00:46:23;;;;;;;3.53;3.13;;;;;;;-144.99;100.00;67352.69;5055822;28;20210;-81
2023/10/14 00:48:58;;;;;;;2.17;2.03;;;;;;;-144.99;100.00;67352.69;5057181;28;20182;-82
2023/10/14 00:51:26;;;;;;;2.93;2.70;;;;;;;-144.99;100.00;67352.69;5055350;28;20189;-81
2023/10/14 00:53:52;;;;;;;2.53;2.33;;;;;;;-144.99;100.00;67352.69;5054388;28;20203;-81
2023/10/14 00:56:27;;;;;;;0.10;0.10;;;;;;;-144.99;100.00;67352.69;5055633;28;20201;-81
2023/10/14 00:58:58;;;;;;;8.23;1.37;;;;;;;-144.99;100.00;67352.69;5055575;28;20569;-81
2023/10/14 01:01:28;;;;;;;18.20;2.53;;;;;;;-144.99;100.00;67352.69;5059060;28;20189;-81
2023/10/14 01:03:57;;;;;;;2.17;1.97;;;;;;;-144.99;100.00;67352.69;5061173;28;20214;-81
2023/10/14 01:06:28;;;;;;;1.73;1.63;;;;;;;-144.99;100.00;67352.69;5060261;28;20609;-81
2023/10/14 01:08:54;;;;;;;2.27;2.07;;;;;;;-144.99;100.00;67352.69;5058803;28;20183;-81
2023/10/14 01:11:23;;;;;;;2.40;2.20;;;;;;;-144.99;100.00;67352.69;5058525;28;20189;-81
2023/10/14 01:13:51;;;;;;;1.50;1.40;;;;;;;-144.99;100.00;67352.69;5058736;28;20210;-81
2023/10/14 01:16:16;;;;;;;2.13;1.90;;;;;;;-144.99;100.00;67352.69;5059440;28;20201;-80
2023/10/14 01:18:44;;;;;;;4.37;2.37;;;;;;;-144.99;100.00;67352.69;5057131;28;20657;-81
2023/10/14 01:21:09;;;;;;;0.67;0.67;;;;;;;-144.99;100.00;67352.69;5058835;28;20179;-81
2023/10/14 01:23:36;;;;;;;4.00;3.30;;;;;;;-144.99;100.00;67352.69;5056408;28;20203;-81
2023/10/14 01:26:04;;;;;;;6.70;3.53;;;;;;;-144.99;100.00;67352.69;5058667;28;20225;-80
2023/10/14 01:28:30;;;;;;;1.70;1.57;;;;;;;-144.99;100.00;67352.69;5057473;28;20214;-81
2023/10/14 01:31:39;;;;;;;5.20;2.13;;;;;;;-144.99;100.00;67352.69;5058679;28;20199;-81
2023/10/14 01:34:05;;;;;;;2.87;1.70;;;;;;;-144.99;100.00;67352.69;5056781;28;20249;-81
2023/10/14 01:36:41;;;;;;;3.63;3.33;;;;;;;-144.99;100.00;67352.69;5058953;28;20182;-81
2023/10/14 01:39:11;;;;;;;4.83;3.97;;;;;;;-144.99;100.00;67352.69;5058420;28;20262;-81
2023/10/14 01:41:38;;;;;;;2.20;2.00;;;;;;;-144.99;100.00;67352.69;5056114;28;20662;-79
2023/10/14 01:44:05;;;;;;;2.37;2.17;;;;;;;-144.99;100.00;67352.69;5057324;28;20214;-81
2023/10/14 01:46:34;;;;;;;3.27;2.23;;;;;;;-144.99;100.00;67352.69;5056048;28;20211;-81
2023/10/14 01:49:10;;;;;;;4.43;3.77;;;;;;;-144.99;100.00;67352.69;5055928;28;20179;-80
2023/10/14 01:51:36;;;;;;;0.73;0.73;;;;;;;-144.99;100.00;67352.69;5057176;28;20637;-79
2023/10/14 01:54:03;;;;;;;6.57;4.07;;;;;;;-144.99;100.00;67352.69;5056806;28;20211;-80
2023/10/14 01:56:28;;;;;;;14.07;4.93;;;;;;;-144.99;100.00;67352.69;5057014;28;20206;-80
2023/10/14 01:58:57;;;;;;;6.67;2.33;;;;;;;-144.99;100.00;67352.69;5055611;28;20561;-80
2023/10/14 02:01:23;;;;;;;6.17;4.87;;;;;;;-144.99;100.00;67352.69;5055948;28;20194;-80
2023/10/14 02:03:51;;;;;;;6.53;4.73;;;;;;;-144.99;100.00;67352.69;5056825;28;20226;-79
2023/10/14 02:06:20;;;;;;;7.67;3.80;;;;;;;-144.99;100.00;67352.69;5054969;28;20290;-80
2023/10/14 02:08:46;;;;;;;4.10;3.70;;;;;;;-144.99;100.00;67352.69;5054379;28;20610;-81
2023/10/14 02:11:12;;;;;;;2.63;2.43;;;;;;;-144.99;100.00;67352.69;5056714;28;20649;-80
2023/10/14 02:13:38;;;;;;;2.87;2.67;;;;;;;-144.99;100.00;67352.69;5055111;28;20208;-80
2023/10/14 02:16:07;;;;;;;2.50;1.87;;;;;;;-144.99;100.00;67352.69;5056565;28;20658;-79
2023/10/14 02:18:36;;;;;;;8.33;4.67;;;;;;;-144.99;100.00;67352.69;5056171;28;20186;-80
2023/10/14 02:21:11;;;;;;;12.20;2.90;;;;;;;-144.99;100.00;67352.69;5056632;28;20645;-81
2023/10/14 02:23:43;;;;;;;3.53;3.17;;;;;;;-144.99;100.00;67352.69;5055762;28;20286;-79
2023/10/14 02:26:24;;;;;;;10.93;4.10;;;;;;;-144.99;100.00;67352.69;5056118;28;20704;-80
2023/10/14 02:28:57;;;;;;;1.37;1.30;;;;;;;-144.99;100.00;67352.69;5055197;28;20187;-82
2023/10/14 02:31:30;;;;;;;1.77;1.13;;;;;;;-144.99;100.00;67352.69;5054881;28;20213;-82
2023/10/14 02:33:57;;;;;;;2.93;0.90;;;;;;;-144.99;100.00;67352.69;5054153;28;20606;-80
2023/10/14 02:36:29;;;;;;;1.37;1.10;;;;;;;-144.99;100.00;67352.69;5054616;28;20182;-81
2023/10/14 02:38:55;;;;;;;2.20;0.50;;;;;;;-144.99;100.00;67352.69;5055451;28;20179;-81
2023/10/14 02:41:21;;;;;;;3.37;0.67;;;;;;;-144.99;100.00;67352.69;5054325;28;20229;-82
2023/10/14 02:43:51;;;;;;;0.00;0.00;;;;;;;-144.99;100.00;67352.69;5053673;28;20207;-81
2023/10/14 02:46:21;;;;;;;0.37;0.37;;;;;;;-144.99;100.00;67352.69;5055461;28;20646;-80
2023/10/14 02:48:53;;;;;;;2.17;1.40;;;;;;;-144.99;100.00;67352.69;5053979;28;20183;-81
2023/10/14 02:51:39;;;;;;;0.00;0.00;;;;;;;-144.99;100.00;67352.69;5053820;28;20245;-80
2023/10/14 02:54:13;;;;;;;0.00;0.00;;;;;;;-144.99;100.00;67352.69;5055002;28;20237;-81
2023/10/14 02:57:13;;;;;;;3.30;0.03;;;;;;;-144.99;100.00;67352.69;5053509;28;20208;-80
2023/10/14 02:59:43;;;;;;;0.10;0.10;;;;;;;-144.99;100.00;67352.69;5053373;28;20199;-80
2023/10/14 03:04:49;;;;;;;0.13;0.13;;;;;;;-144.99;100.00;67352.69;5054393;28;20199;-80
2023/10/14 03:07:30;;;;;;;0.10;0.10;;;;;;;-144.99;100.00;67352.69;5052386;28;20193;-80
2023/10/14 03:12:49;;;;;;;0.13;0.13;;;;;;;-144.99;100.00;67352.69;5052465;28;20277;-80
2023/10/14 03:15:19;;;;;;;0.27;0.27;;;;;;;-144.99;100.00;67352.69;5056364;28;20230;-81
2023/10/14 03:17:55;;;;;;;0.17;0.10;;;;;;;-144.99;100.00;67352.69;5056554;28;20225;-81
2023/10/14 03:23:18;;;;;;;7.10;0.30;;;;;;;-144.99;100.00;67352.69;5056803;28;20190;-81
2023/10/14 03:25:49;;;;;;;0.40;0.37;;;;;;;-144.99;100.00;67352.69;5056133;28;20209;-81
2023/10/14 03:28:27;;;;;;;1.90;0.60;;;;;;;-144.99;100.00;67352.69;5055462;28;20184;-81
2023/10/14 03:30:56;;;;;;;0.10;0.10;;;;;;;-144.99;100.00;67352.69;5056870;28;20189;-81
2023/10/14 03:33:23;;;;;;;0.10;0.10;;;;;;;-144.99;100.00;67352.69;5055880;28;20199;-80
2023/10/14 03:36:05;;;;;;;0.10;0.10;;;;;;;-144.99;100.00;67352.69;5055780;28;20191;-80
2023/10/14 03:41:18;;;;;;;0.60;0.30;;;;;;;-144.99;100.00;67352.69;5055430;28;20198;-80
2023/10/14 03:46:15;;;;;;;0.73;0.40;;;;;;;-144.99;100.00;67352.69;5052695;28;20237;-80
2023/10/14 03:48:47;;;;;;;0.10;0.10;;;;;;;-144.99;100.00;67352.69;5052581;28;20186;-81
2023/10/14 03:51:30;;;;;;;0.97;0.10;;;;;;;-144.99;100.00;67352.69;5052282;28;20183;-81
2023/10/14 03:53:56;;;;;;;0.10;0.03;;;;;;;-144.99;100.00;67352.69;5050894;28;20575;-82
2023/10/14 03:56:25;;;;;;;0.20;0.20;;;;;;;-144.99;100.00;67352.69;5046445;28;20176;-82
2023/10/14 03:58:57;;;;;;;0.20;0.20;;;;;;;-144.99;100.00;67352.69;5030983;28;20246;-80
2023/10/14 04:01:43;;;;;;;1.70;0.70;;;;;;;-144.99;100.00;67352.69;5031291;28;20180;-82
2023/10/14 04:04:18;;;;;;;0.00;0.00;;;;;;;-144.99;100.00;67352.69;5039664;28;20260;-81
2023/10/14 04:06:52;;;;;;;0.00;0.00;;;;;;;-144.99;100.00;67352.69;5051385;28;20256;-82
2023/10/14 04:09:24;;;;;;;3.00;1.03;;;;;;;-144.99;100.00;67352.69;5050819;28;20175;-81
2023/10/14 04:11:54;;;;;;;4.03;0.57;;;;;;;-144.99;100.00;67352.69;5048438;28;20183;-81
2023/10/14 04:14:22;;;;;;;3.90;0.10;;;;;;;-144.99;100.00;67352.69;5052216;28;20203;-81
2023/10/14 04:17:08;;;;;;;0.13;0.13;;;;;;;-144.99;100.00;67352.69;5048784;28;20178;-81
2023/10/14 04:19:46;;;;;;;0.03;0.03;;;;;;;-144.99;100.00;67352.69;5045096;28;20235;-81
2023/10/14 04:27:45;;;;;;;0.13;0.10;;;;;;;-144.99;100.00;67352.69;5052241;28;20702;-82
2023/10/14 04:30:11;;;;;;;0.00;0.00;;;;;;;-144.99;100.00;67352.69;5047805;28;20660;-82
2023/10/14 04:35:24;;;;;;;0.00;0.00;;;;;;;-144.99;100.00;67352.69;5033779;28;20301;-81
2023/10/14 04:37:54;;;;;;;0.00;0.00;;;;;;;-144.99;100.00;67352.69;5046609;28;20187;-82
2023/10/14 04:48:29;;;;;;;1.27;0.40;;;;;;;-144.99;100.00;67352.69;5051897;28;20277;-81
2023/10/14 04:50:57;;;;;;;0.27;0.10;;;;;;;-144.99;100.00;67352.69;5050518;28;20198;-81
2023/10/14 04:53:26;;;;;;;9.27;1.57;;;;;;;-144.99;100.00;67352.69;5049634;28;20237;-81
2023/10/14 04:55:52;;;;;;;8.57;1.23;;;;;;;-144.99;100.00;67352.69;5051432;28;20552;-82
2023/10/14 04:58:24;;;;;;;3.47;1.03;;;;;;;-144.99;100.00;67352.69;5049901;28;20193;-81
2023/10/14 05:00:49;;;;;;;0.83;0.40;;;;;;;-144.99;100.00;67352.69;5051394;28;20218;-81
2023/10/14 05:03:19;;;;;;;0.70;0.50;;;;;;;-144.99;100.00;67352.69;5050979;28;20214;-81
2023/10/14 05:05:46;;;;;;;1.17;0.97;;;;;;;-144.99;100.00;67352.69;5050053;28;20681;-80
2023/10/14 05:08:21;;;;;;;6.33;0.97;;;;;;;-144.99;100.00;67352.69;5049842;28;20222;-80
2023/10/14 05:10:50;;;;;;;6.67;1.30;;;;;;;-144.99;100.00;67352.69;5047796;28;20266;-81
2023/10/14 05:13:16;;;;;;;8.17;1.30;;;;;;;-144.99;100.00;67352.69;5054906;28;20202;-81
2023/10/14 05:15:45;;;;;;;5.83;1.30;;;;;;;-144.99;100.00;67352.69;5056493;28;20649;-83
2023/10/14 05:18:16;;;;;;;12.10;0.53;;;;;;;-144.99;100.00;67352.69;5057022;28;20205;-82
2023/10/14 05:20:56;;;;;;;5.33;1.20;;;;;;;-144.99;100.00;67352.69;5055663;28;20181;-82
2023/10/14 05:23:24;;;;;;;0.53;0.20;;;;;;;-144.99;100.00;67352.69;5053926;28;20207;-82
2023/10/14 05:25:56;;;;;;;12.63;1.57;;;;;;;-144.99;100.00;67352.69;5055986;28;20195;-82
2023/10/14 05:28:31;;;;;;;0.70;0.60;;;;;;;-144.99;100.00;67352.69;5055068;28;20281;-82
2023/10/14 05:30:57;;;;;;;0.60;0.43;;;;;;;-144.99;100.00;67352.69;5054712;28;20183;-82
2023/10/14 05:33:24;;;;;;;0.10;0.10;;;;;;;-144.99;100.00;67352.69;5052822;28;20203;-82
2023/10/14 05:35:49;;;;;;;11.43;2.47;;;;;;;-144.99;100.00;67352.69;5055133;28;20653;-82
2023/10/14 05:38:17;;;;;;;1.60;0.43;;;;;;;-144.99;100.00;67352.69;5054568;28;20190;-82
2023/10/14 05:40:43;;;;;;;12.63;0.77;;;;;;;-144.99;100.00;67352.69;5054140;28;20297;-81
2023/10/14 05:43:09;;;;;;;3.57;0.60;;;;;;;-144.99;100.00;67352.69;5052593;28;20281;-81
2023/10/14 05:45:36;;;;;;;1.07;0.50;;;;;;;-144.99;100.00;67352.69;5054688;28;20195;-82
2023/10/14 05:48:07;;;;;;;1.17;0.30;;;;;;;-144.99;100.00;67352.69;5058515;28;20179;-82
2023/10/14 05:50:35;;;;;;;0.33;0.23;;;;;;;-144.99;100.00;67352.69;5058958;28;20266;-83
2023/10/14 05:53:01;;;;;;;0.00;0.00;;;;;;;-144.99;100.00;67352.69;5057118;28;20178;-83
2023/10/14 05:55:29;;;;;;;0.07;0.07;;;;;;;-144.99;100.00;67352.69;5058446;28;20187;-83
2023/10/14 05:57:58;;;;;;;1.07;0.50;;;;;;;-144.99;100.00;67352.69;5059968;28;20214;-82
2023/10/14 06:00:25;;;;;;;1.60;0.73;;;;;;;-144.99;100.00;67352.69;5060272;28;20641;-81
2023/10/14 06:02:52;;;;;;;2.60;0.57;;;;;;;-144.99;100.00;67352.69;5060342;28;20252;-82
2023/10/14 06:05:31;;;;;;;0.00;0.00;;;;;;;-144.99;100.00;67352.69;5058981;28;20292;-82
2023/10/14 06:08:05;;;;;;;0.10;0.10;;;;;;;-144.99;100.00;67352.69;5057249;28;20250;-82
2023/10/14 06:10:36;;;;;;;1.80;0.33;;;;;;;-144.99;100.00;67352.69;5057657;28;20189;-80
2023/10/14 06:13:05;;;;;;;0.83;0.77;;;;;;;-144.99;100.00;67352.69;5072774;28;20178;-81
2023/10/14 06:15:32;;;;;;;7.10;0.50;;;;;;;-144.99;100.00;67352.69;5071302;28;20173;-82
2023/10/14 06:17:58;;;;;;;1.67;0.57;;;;;;;-144.99;100.00;67352.69;5059346;28;20179;-84
2023/10/14 06:20:23;;;;;;;14.10;1.70;;;;;;;-144.99;100.00;67352.69;5052341;28;20242;-83
2023/10/14 06:22:50;;;;;;;1.33;0.47;;;;;;;-144.99;100.00;67352.69;5056675;28;20183;-83
2023/10/14 06:25:16;;;;;;;0.57;0.57;;;;;;;-144.99;100.00;67352.69;5054491;28;20191;-83
2023/10/14 06:27:45;;;;;;;7.93;0.93;;;;;;;-144.99;100.00;67352.69;5053745;28;20183;-82
2023/10/14 06:30:19;;;;;;;0.27;0.20;;;;;;;-144.99;100.00;67352.69;5052772;28;20190;-82
2023/10/14 06:32:49;;;;;;;3.10;1.13;;;;;;;-144.99;100.00;67352.69;5053211;28;20676;-82
2023/10/14 06:35:17;;;;;;;3.20;0.47;;;;;;;-144.99;100.00;67352.69;5052843;28;20499;-82
2023/10/14 06:37:45;;;;;;;11.80;0.47;;;;;;;-144.99;100.00;67352.69;5049448;28;20167;-81
2023/10/14 06:40:13;;;;;;;5.97;1.07;;;;;;;-144.99;100.00;67352.69;5052422;28;20577;-81
2023/10/14 06:42:43;;;;;;;8.37;0.70;;;;;;;-144.99;100.00;67352.69;5051930;28;20185;-81
2023/10/14 06:45:09;;;;;;;1.80;0.97;;;;;;;-144.99;100.00;67352.69;5053651;28;20669;-82
2023/10/14 06:47:34;;;;;;;1.13;0.73;;;;;;;-144.99;100.00;67352.69;5053582;28;20191;-81
2023/10/14 06:50:01;;;;;;;6.73;0.77;;;;;;;-144.99;100.00;67352.69;5051765;28;20606;-81
2023/10/14 06:52:27;;;;;;;5.77;0.97;;;;;;;-144.99;100.00;67352.69;5051510;28;20734;-81
2023/10/14 06:54:53;;;;;;;4.07;0.77;;;;;;;-144.99;100.00;67352.69;5052191;28;20209;-81
2023/10/14 06:57:18;;;;;;;0.50;0.50;;;;;;;-144.99;100.00;67352.69;5052785;28;20179;-81
2023/10/14 06:59:45;;;;;;;1.67;1.27;;;;;;;-144.99;100.00;67352.69;5051692;28;20187;-82
2023/10/14 07:02:10;;;;;;;0.30;0.13;;;;;;;-144.99;100.00;67352.69;5051580;28;20205;-81
2023/10/14 07:04:40;;;;;;;1.43;1.17;;;;;;;-144.99;100.00;67352.69;5052104;28;20728;-80
2023/10/14 07:07:09;;;;;;;1.70;0.50;;;;;;;-144.99;100.00;67352.69;5051722;28;20202;-81
2023/10/14 07:09:37;;;;;;;5.07;0.70;;;;;;;-144.99;100.00;67352.69;5053376;28;20569;-81
2023/10/14 07:12:13;;;;;;;1.27;0.57;;;;;;;-144.99;100.00;67352.69;5039271;28;20187;-81
2023/10/14 07:14:39;;;;;;;0.87;0.40;;;;;;;-144.99;100.00;67352.69;5047368;28;20195;-81
2023/10/14 07:17:07;;;;;;;0.73;0.30;;;;;;;-144.99;100.00;67352.69;5043558;28;20214;-81
2023/10/14 07:19:32;;;;;;;2.33;0.77;;;;;;;-144.99;100.00;67352.69;5049460;28;20178;-81
2023/10/14 07:21:57;;;;;;;4.20;0.10;;;;;;;-144.99;100.00;67352.69;5049895;28;20182;-82
2023/10/14 07:24:23;;;;;;;1.27;1.23;;;;;;;-144.99;100.00;67352.69;5038765;28;20601;-82
2023/10/14 07:26:48;;;;;;;1.27;0.70;;;;;;;-144.99;100.00;67352.69;5051228;28;20203;-80
2023/10/14 07:29:14;;;;;;;0.30;0.30;;;;;;;-144.99;100.00;67352.69;5045114;28;20179;-81
2023/10/14 07:31:41;;;;;;;34.90;0.90;;;;;;;-144.99;100.00;67352.69;5045408;28;20179;-81
2023/10/14 07:34:09;;;;;;;1.60;1.00;;;;;;;-144.99;100.00;67352.69;5046463;28;20209;-82
2023/10/14 07:36:34;;;;;;;2.53;0.73;;;;;;;-144.99;100.00;67352.69;5046919;28;20179;-82
2023/10/14 07:39:27;;;;;;;5.63;1.43;;;;;;;-144.99;100.00;67352.69;5048994;28;20657;-82
2023/10/14 07:41:52;;;;;;;3.07;0.70;;;;;;;-144.99;100.00;67352.69;5049764;28;20207;-82
2023/10/14 07:44:22;;;;;;;8.77;0.93;;;;;;;-144.99;100.00;67352.69;5040180;28;20222;-80
2023/10/14 07:46:52;;;;;;;9.13;0.50;;;;;;;-144.99;100.00;67352.69;5037644;28;20645;-82
2023/10/14 07:49:19;;;;;;;11.23;0.93;;;;;;;-144.99;100.00;67352.69;5041439;28;20270;-80
2023/10/14 07:51:46;;;;;;;0.80;0.50;;;;;;;-144.99;100.00;67352.69;5042477;28;20555;-82
2023/10/14 07:54:12;;;;;;;6.80;1.17;;;;;;;-144.99;100.00;67352.69;5045785;28;20210;-81
2023/10/14 07:56:38;;;;;;;1.80;1.27;;;;;;;-144.99;100.00;67352.69;5047050;28;20175;-81
2023/10/14 07:59:04;;;;;;;7.77;1.17;;;;;;;-144.99;100.00;67352.69;5044167;28;20217;-82
2023/10/14 08:01:29;;;;;;;0.43;0.40;;;;;;;-144.99;100.00;67352.69;5036100;28;20180;-82
2023/10/14 08:03:56;;;;;;;1.63;0.50;;;;;;;-144.99;100.00;67352.69;5049692;28;20684;-81
2023/10/14 08:06:21;;;;;;;2.30;0.77;;;;;;;-144.99;100.00;67352.69;5042483;28;20263;-82
2023/10/14 08:08:47;;;;;;;0.30;0.13;;;;;;;-144.99;100.00;67352.69;5042512;28;20262;-82
2023/10/14 08:11:14;;;;;;;2.27;0.23;;;;;;;-144.99;100.00;67352.69;5045155;28;20194;-82
2023/10/14 08:13:43;;;;;;;2.70;1.53;;;;;;;-144.99;100.00;67352.69;5042246;28;20683;-81
2023/10/14 08:16:09;;;;;;;3.63;1.97;;;;;;;-144.99;100.00;67352.69;5042717;28;20167;-81
2023/10/14 08:18:34;;;;;;;4.00;2.23;;;;;;;-144.99;100.00;67352.69;5039757;28;20646;-81
2023/10/14 08:21:00;;;;;;;1.53;0.50;;;;;;;-144.99;100.00;67352.69;5045627;28;20285;-81
2023/10/14 08:23:27;;;;;;;2.97;0.87;;;;;;;-144.99;100.00;67352.69;5056030;28;20211;-83
2023/10/14 08:25:57;;;;;;;5.10;0.87;;;;;;;-144.99;100.00;67352.69;5055111;28;20241;-82
2023/10/14 08:28:32;;;;;;;8.03;0.77;;;;;;;-144.99;100.00;67352.69;5054103;28;20190;-82
2023/10/14 08:30:58;;;;;;;1.27;0.90;;;;;;;-144.99;100.00;67352.69;5054840;28;20190;-81
2023/10/14 08:33:25;;;;;;;3.20;0.87;;;;;;;-144.99;100.00;67352.69;5053972;28;20573;-81
2023/10/14 08:35:52;;;;;;;2.53;0.93;;;;;;;-144.99;100.00;67352.69;5055574;28;20194;-83
2023/10/14 08:38:27;;;;;;;2.93;1.37;;;;;;;-144.99;100.00;67352.69;5055452;28;20702;-82
2023/10/14 08:40:59;;;;;;;6.67;1.00;;;;;;;-144.99;100.00;67352.69;5054598;28;20186;-83
2023/10/14 08:43:26;;;;;;;2.40;1.27;;;;;;;-144.99;100.00;67352.69;5051504;28;20194;-83
2023/10/14 08:45:53;;;;;;;1.90;0.70;;;;;;;-144.99;100.00;67352.69;5049193;28;20200;-83
2023/10/14 08:48:23;;;;;;;0.57;0.57;;;;;;;-144.99;100.00;67352.69;5047354;28;20719;-83
2023/10/14 08:50:51;;;;;;;7.47;0.90;;;;;;;-144.99;100.00;67352.69;5038531;28;20217;-83
2023/10/14 08:53:17;;;;;;;1.20;0.23;;;;;;;-144.99;100.00;67352.69;5053675;28;20662;-83
2023/10/14 08:55:46;;;;;;;12.63;1.30;;;;;;;-144.99;100.00;67352.69;5047702;28;20176;-82
2023/10/14 08:58:15;;;;;;;1.20;0.50;;;;;;;-144.99;100.00;67352.69;5041269;28;20182;-82
2023/10/14 09:00:43;;;;;;;0.97;0.63;;;;;;;-144.99;100.00;67352.69;5053026;28;20189;-83
2023/10/14 09:03:09;;;;;;;2.57;1.30;;;;;;;-144.99;100.00;67352.69;5054642;28;20171;-81
2023/10/14 09:05:41;;;;;;;11.70;1.17;;;;;;;-144.99;100.00;67352.69;5050715;28;20191;-82
2023/10/14 09:08:11;;;;;;;1.23;0.90;;;;;;;-144.99;100.00;67352.69;5049262;28;20206;-82
2023/10/14 09:10:37;;;;;;;8.40;1.67;;;;;;;-144.99;100.00;67352.69;5053973;28;20185;-81
2023/10/14 09:13:05;;;;;;;5.73;1.47;;;;;;;-144.99;100.00;67352.69;5054793;28;20236;-81
2023/10/14 09:15:42;;;;;;;1.13;0.90;;;;;;;-144.99;100.00;67352.69;5054838;28;20191;-80
2023/10/14 09:18:16;;;;;;;1.17;0.17;;;;;;;-144.99;100.00;67352.69;5052301;28;20186;-83
2023/10/14 09:20:43;;;;;;;4.70;1.93;;;;;;;-144.99;100.00;67352.69;5055259;28;20174;-85
2023/10/14 09:23:39;;;;;;;12.27;1.47;;;;;;;-144.99;100.00;67352.69;5072174;28;20194;-81
2023/10/14 09:26:05;;;;;;;1.40;0.70;;;;;;;-144.99;100.00;67352.69;5075316;28;20207;-82
2023/10/14 09:28:40;;;;;;;1.47;0.60;;;;;;;-144.99;100.00;67352.69;5068347;28;20206;-80
2023/10/14 09:31:07;;;;;;;1.87;1.13;;;;;;;-144.99;100.00;67352.69;5069515;28;20186;-81
2023/10/14 09:33:36;;;;;;;8.93;1.07;;;;;;;-144.99;100.00;67352.69;5056316;28;20206;-83
2023/10/14 09:36:11;;;;;;;1.90;1.47;;;;;;;-144.99;100.00;67352.69;5059214;28;20187;-82
2023/10/14 09:38:37;;;;;;;2.67;1.10;;;;;;;-144.99;100.00;67352.69;5059413;28;20171;-83
2023/10/14 09:41:05;;;;;;;2.00;1.07;;;;;;;-144.99;100.00;67352.69;5058853;28;20194;-82
2023/10/14 09:43:32;;;;;;;2.73;1.47;;;;;;;-144.99;100.00;67352.69;5056903;28;20229;-81
2023/10/14 09:45:59;;;;;;;3.93;1.80;;;;;;;-144.99;100.00;67352.69;5045844;28;20207;-81
2023/10/14 09:48:34;;;;;;;11.13;1.53;;;;;;;-144.99;100.00;67352.69;5034698;28;20198;-81
2023/10/14 09:51:01;;;;;;;3.97;1.03;;;;;;;-144.99;100.00;67352.69;5035635;28;20210;-82
2023/10/14 09:53:29;;;;;;;2.00;0.50;;;;;;;-144.99;100.00;67352.69;5039877;28;20208;-82
2023/10/14 09:56:04;;;;;;;5.53;0.93;;;;;;;-144.99;100.00;67352.69;5035954;28;20630;-80
2023/10/14 09:58:34;;;;;;;0.83;0.70;;;;;;;-144.99;100.00;67352.69;5035576;28;20179;-81
2023/10/14 10:01:06;;;;;;;10.90;0.73;;;;;;;-144.99;100.00;67352.69;5037054;28;20669;-81
2023/10/14 10:03:36;;;;;;;5.33;1.23;;;;;;;-144.99;100.00;67352.69;5036328;28;20207;-82
2023/10/14 10:06:13;;;;;;;5.33;1.00;;;;;;;-144.99;100.00;67352.69;5035902;28;20204;-81
2023/10/14 10:08:57;;;;;;;2.10;0.87;;;;;;;-144.99;100.00;67352.69;5035491;28;20212;-82
2023/10/14 10:11:24;;;;;;;12.60;1.50;;;;;;;-144.99;100.00;67352.69;5037183;28;20241;-83
2023/10/14 10:13:51;;;;;;;9.53;3.10;;;;;;;-144.99;100.00;67352.69;5035661;28;20206;-82
2023/10/14 10:16:21;;;;;;;4.07;1.30;;;;;;;-144.99;100.00;67352.69;5036673;28;20175;-82
2023/10/14 10:18:58;;;;;;;6.27;1.50;;;;;;;-144.99;100.00;67352.69;5036851;28;20741;-82
2023/10/14 10:21:30;;;;;;;12.20;1.27;;;;;;;-144.99;100.00;67352.69;5035724;28;20234;-81
2023/10/14 10:24:09;;;;;;;1.03;0.23;;;;;;;-144.99;100.00;67352.69;5036738;28;20689;-83
2023/10/14 10:26:57;;;;;;;8.47;1.60;;;;;;;-144.99;100.00;67352.69;5037295;28;20203;-82
2023/10/14 10:29:22;;;;;;;4.00;1.60;;;;;;;-144.99;100.00;67352.69;5037328;28;20179;-82
2023/10/14 10:32:07;;;;;;;16.63;1.00;;;;;;;-144.99;100.00;67352.69;5037009;28;20179;-83
2023/10/14 10:34:33;;;;;;;7.50;1.10;;;;;;;-144.99;100.00;67352.69;5040210;28;20215;-82
2023/10/14 10:37:03;;;;;;;1.10;0.27;;;;;;;-144.99;100.00;67352.69;5040349;28;20397;-80
2023/10/14 10:39:32;;;;;;;2.97;1.17;;;;;;;-144.99;100.00;67352.69;5043261;28;20229;-82
2023/10/14 10:41:58;;;;;;;0.37;0.37;;;;;;;-144.99;100.00;67352.69;5037828;28;20194;-82
2023/10/14 10:44:30;;;;;;;3.37;0.93;;;;;;;-144.99;100.00;67352.69;5037970;28;20205;-83
2023/10/14 10:46:58;;;;;;;5.90;1.17;;;;;;;-144.99;100.00;67352.69;5035878;28;20698;-83
2023/10/14 10:49:59;;;;;;;3.70;0.80;;;;;;;-144.99;100.00;67352.69;5035519;28;20186;-83
2023/10/14 10:52:26;;;;;;;0.43;0.20;;;;;;;-144.99;100.00;67352.69;5044336;28;20201;-81
2023/10/14 10:54:52;;;;;;;3.57;0.80;;;;;;;-144.99;100.00;67352.69;5052927;28;20211;-83
2023/10/14 10:57:19;;;;;;;1.57;0.50;;;;;;;-144.99;100.00;67352.69;5054523;28;20253;-81
2023/10/14 10:59:46;;;;;;;1.37;1.00;;;;;;;-144.99;100.00;67352.69;5056784;28;20171;-82
2023/10/14 11:02:13;;;;;;;6.30;1.30;;;;;;;-144.99;100.00;67352.69;5056915;28;20187;-79
2023/10/14 11:04:39;;;;;;;4.53;1.13;;;;;;;-144.99;100.00;67352.69;5058065;28;20776;-81
2023/10/14 11:07:12;;;;;;;0.20;0.20;;;;;;;-144.99;100.00;67352.69;5048946;28;20208;-79
2023/10/14 11:09:41;;;;;;;1.43;1.27;;;;;;;-144.99;100.00;67352.69;5047753;28;20681;-82
2023/10/14 11:12:10;;;;;;;7.57;1.33;;;;;;;-144.99;100.00;67352.69;5042010;28;20179;-81
2023/10/14 11:14:36;;;;;;;12.60;1.87;;;;;;;-144.99;100.00;67352.69;5043979;28;20211;-82
2023/10/14 11:17:02;;;;;;;1.37;1.07;;;;;;;-144.99;100.00;67352.69;5056718;28;20271;-82
2023/10/14 11:19:33;;;;;;;2.93;1.17;;;;;;;-144.99;100.00;67352.69;5057418;28;20178;-79
2023/10/14 11:22:01;;;;;;;4.57;1.50;;;;;;;-144.99;100.00;67352.69;5055443;28;20179;-81
2023/10/14 11:24:27;;;;;;;4.37;0.77;;;;;;;-144.99;100.00;67352.69;5057048;28;20594;-81
2023/10/14 11:26:55;;;;;;;6.77;1.30;;;;;;;-144.99;100.00;67352.69;5057269;28;20199;-81
2023/10/14 11:29:24;;;;;;;1.73;1.20;;;;;;;-144.99;100.00;67352.69;5055986;28;20197;-80
2023/10/14 11:31:54;;;;;;;2.03;1.40;;;;;;;-144.99;100.00;67352.69;5056860;28;20182;-79
2023/10/14 11:34:20;;;;;;;1.20;0.80;;;;;;;-144.99;100.00;67352.69;5057205;28;20222;-80
2023/10/14 11:36:48;;;;;;;2.13;0.77;;;;;;;-144.99;100.00;67352.69;5056023;28;20210;-81
2023/10/14 11:39:18;;;;;;;14.97;1.07;;;;;;;-144.99;100.00;67352.69;5055432;28;20186;-81
2023/10/14 11:41:44;;;;;;;1.27;1.03;;;;;;;-144.99;100.00;67352.69;5056984;28;20175;-81
2023/10/14 11:44:10;;;;;;;4.30;0.47;;;;;;;-144.99;100.00;67352.69;5055194;28;20285;-81
2023/10/14 11:46:38;;;;;;;3.07;1.60;;;;;;;-144.99;100.00;67352.69;5056543;28;20226;-81
2023/10/14 11:49:09;;;;;;;3.00;1.40;;;;;;;-144.99;100.00;67352.69;5056023;28;20561;-81
2023/10/14 11:51:37;;;;;;;5.27;1.27;;;;;;;-144.99;100.00;67352.69;5055741;28;20187;-81
2023/10/14 11:54:03;;;;;;;2.50;0.73;;;;;;;-144.99;100.00;67352.69;5055093;28;20237;-79
2023/10/14 11:56:28;;;;;;;4.50;1.77;;;;;;;-144.99;100.00;67352.69;5055954;28;20175;-81